Aviation Digital Data Service (ADDS)

Output produced by METARs form (1248 UTC 01 July 2015)
found at http://aviationweather.gov/adds/metars/
 
KCLT 011121Z 0112/0212 19004KT 6SM BR OVC005 
     FM011300 20004KT P6SM BKN005 
     FM011400 25005KT P6SM FEW060 SCT160 
     FM011800 25008G17KT P6SM SCT060 BKN160 
     TEMPO 0119/0123 4SM TSRA BKN040CB 
     FM020100 26004KT P6SM BKN060